Chicago, Illinois
Traffic Map
Current Weather Conditions
Chicago, Illinois
Few Clouds
Few Clouds
74°
Feels Like: 74°
Wind Chill: 74° Ceiling: Unl
Heat Index: 74° Visibility: 10mi
Dew Point: 56° Wind: 7mph
Humidity: 53% Direction: 190° (S)
Pressure: 30.21in Gusts: 0mph
Raw Report DataKMDW 241353Z 19006KT 10SM FEW250 23/13 A3021 RMK AO2 SLP222 T02330133
Traffic Incident Summary
Active as of:
Severity:
Category:
InformationThere was an issue retrieving the traffic information for this location. Please try a different location or try again shortly.
Advertisements